PWSweather.com
Personal Weather Stations
Station Observations
CARNOUSTIE
Pambride, CarnoustieGB DD7 6DY

PambrideCarnoustieGB DD7 6DY

Lat: 56.50889, Lon: -2.7051

Elevation: 105

Station Type: Oregon Scientific WMR200

Latest ConditionsUpdated 10:40:00 PM GMT Saturday, Jul 21, 2018
Currently Today's Max Today's Min Today's Average
Temperature 61.5°F16.4°C 80.9°F27.2°C 58.8°F14.9°C 67.0°F19.4°C
Dew Point 56.6°F13.7°C 68.7°F20.4°C 56.3°F13.5°C 61.1°F16.2°C
Winds 10.4 mph W16.7 kmh W 11.5 mph -18.5 kmh - - 4.2 mph 6.8 kmh
Wind Gusts 12.7 mph20.4 kmh 16.1 mph25.9 kmh - -
Humidity 84% 98% 62% 82%
Pressure 29.86 in1011.2 mb 29.91 in1012.9 mb 29.82 in1009.8 mb -
Hour Temp Dew Point Humidity Winds Wind Gusts Pressure Precip Precip Rate Daily Precip Total
10:40 PM 61.5°F16.4°C 56.6°F13.7°C 84% 10.4 mph W16.7 kmh W 12.7 mph20.4 kmh 29.86 in1011.2 mb - 0.00 in0.0 mm 0.00 in0.0 mm
10:30 PM 61.9°F16.6°C 56.7°F13.7°C 83% 11.5 mph W18.5 kmh W 12.7 mph20.4 kmh 29.86 in1011.2 mb - 0.00 in0.0 mm 0.00 in0.0 mm
10:20 PM 62.1°F16.7°C 56.8°F13.8°C 83% 8.1 mph W13.0 kmh W 11.5 mph18.5 kmh 29.86 in1011.2 mb - 0.00 in0.0 mm 0.00 in0.0 mm
10:10 PM 62.3°F16.8°C 57.1°F13.9°C 83% 9.2 mph WNW14.8 kmh WNW 11.5 mph18.5 kmh 29.86 in1011.2 mb - 0.00 in0.0 mm 0.00 in0.0 mm
10:00 PM 62.8°F17.1°C 57.2°F14.0°C 82% 9.2 mph W14.8 kmh W 12.7 mph20.4 kmh 29.86 in1011.2 mb - 0.00 in0.0 mm 0.00 in0.0 mm
09:50 PM 63.1°F17.3°C 57.2°F14.0°C 81% 9.2 mph W14.8 kmh W 10.4 mph16.7 kmh 29.86 in1011.2 mb - 0.00 in0.0 mm 0.00 in0.0 mm
09:40 PM 63.5°F17.5°C 57.2°F14.0°C 80% 9.2 mph W14.8 kmh W 13.8 mph22.2 kmh 29.86 in1011.2 mb - 0.00 in0.0 mm 0.00 in0.0 mm
09:30 PM 63.8°F17.7°C 57.2°F14.0°C 79% 6.9 mph W11.1 kmh W 8.1 mph13.0 kmh 29.88 in1011.9 mb - 0.00 in0.0 mm 0.00 in0.0 mm
09:20 PM 64.0°F17.8°C 57.4°F14.1°C 79% 6.9 mph WSW11.1 kmh WSW 9.2 mph14.8 kmh 29.88 in1011.9 mb - 0.00 in0.0 mm 0.00 in0.0 mm
09:10 PM 64.2°F17.9°C 56.9°F13.8°C 77% 8.1 mph WSW13.0 kmh WSW 10.4 mph16.7 kmh 29.86 in1011.2 mb - 0.00 in0.0 mm 0.00 in0.0 mm
09:00 PM 64.4°F18.0°C 56.3°F13.5°C 75% 6.9 mph W11.1 kmh W 8.1 mph13.0 kmh 29.86 in1011.2 mb - 0.00 in0.0 mm 0.00 in0.0 mm
08:50 PM 64.8°F18.2°C 56.3°F13.5°C 74% 8.1 mph W13.0 kmh W 11.5 mph18.5 kmh 29.86 in1011.2 mb - 0.00 in0.0 mm 0.00 in0.0 mm
08:40 PM 64.8°F18.2°C 56.3°F13.5°C 74% 8.1 mph W13.0 kmh W 10.4 mph16.7 kmh 29.86 in1011.2 mb - 0.00 in0.0 mm 0.00 in0.0 mm
08:30 PM 65.1°F18.4°C 57.0°F13.9°C 75% 8.1 mph WNW13.0 kmh WNW 8.1 mph13.0 kmh 29.86 in1011.2 mb - 0.00 in0.0 mm 0.00 in0.0 mm
08:20 PM 65.4°F18.6°C 56.9°F13.8°C 74% 8.1 mph W13.0 kmh W 10.4 mph16.7 kmh 29.86 in1011.2 mb - 0.00 in0.0 mm 0.00 in0.0 mm
08:10 PM 65.8°F18.8°C 56.6°F13.7°C 72% 10.4 mph W16.7 kmh W 13.8 mph22.2 kmh 29.86 in1011.2 mb - 0.00 in0.0 mm 0.00 in0.0 mm
08:00 PM 66.6°F19.2°C 56.9°F13.8°C 71% 10.4 mph WSW16.7 kmh WSW 16.1 mph25.9 kmh 29.86 in1011.2 mb - 0.00 in0.0 mm 0.00 in0.0 mm
07:50 PM 67.1°F19.5°C 57.0°F13.9°C 70% 10.4 mph WSW16.7 kmh WSW 11.5 mph18.5 kmh 29.86 in1011.2 mb - 0.00 in0.0 mm 0.00 in0.0 mm
07:40 PM 67.4°F19.7°C 57.6°F14.2°C 71% 8.1 mph SW13.0 kmh SW 9.2 mph14.8 kmh 29.86 in1011.2 mb - 0.00 in0.0 mm 0.00 in0.0 mm
07:30 PM 67.8°F19.9°C 57.7°F14.3°C 70% 5.8 mph W9.3 kmh W 9.2 mph14.8 kmh 29.86 in1011.2 mb - 0.00 in0.0 mm 0.00 in0.0 mm
07:20 PM 68.4°F20.2°C 57.8°F14.3°C 69% 8.1 mph WSW13.0 kmh WSW 13.8 mph22.2 kmh 29.86 in1011.2 mb - 0.00 in0.0 mm 0.00 in0.0 mm
07:10 PM 69.3°F20.7°C 58.7°F14.8°C 69% 8.1 mph W13.0 kmh W 9.2 mph14.8 kmh 29.86 in1011.2 mb - 0.00 in0.0 mm 0.00 in0.0 mm
07:00 PM 69.7°F20.9°C 58.7°F14.8°C 68% 6.9 mph WSW11.1 kmh WSW 10.4 mph16.7 kmh 29.86 in1011.2 mb - 0.00 in0.0 mm 0.00 in0.0 mm
06:50 PM 70.6°F21.4°C 59.5°F15.3°C 68% 9.2 mph WSW14.8 kmh WSW 11.5 mph18.5 kmh 29.86 in1011.2 mb - 0.00 in0.0 mm 0.00 in0.0 mm
06:40 PM 71.1°F21.7°C 58.8°F14.9°C 65% 9.2 mph WSW14.8 kmh WSW 11.5 mph18.5 kmh 29.82 in1009.8 mb - 0.00 in0.0 mm 0.00 in0.0 mm
06:30 PM 71.8°F22.1°C 59.4°F15.2°C 65% 8.1 mph WSW13.0 kmh WSW 10.4 mph16.7 kmh 29.82 in1009.8 mb - 0.00 in0.0 mm 0.00 in0.0 mm
06:20 PM 72.3°F22.4°C 59.9°F15.5°C 65% 6.9 mph WSW11.1 kmh WSW 10.4 mph16.7 kmh 29.82 in1009.8 mb - 0.00 in0.0 mm 0.00 in0.0 mm
06:10 PM 72.7°F22.6°C 60.2°F15.7°C 65% 8.1 mph SW13.0 kmh SW 11.5 mph18.5 kmh 29.82 in1009.8 mb - 0.00 in0.0 mm 0.00 in0.0 mm
06:00 PM 72.0°F22.2°C 60.8°F16.0°C 68% 9.2 mph SW14.8 kmh SW 11.5 mph18.5 kmh 29.82 in1009.8 mb - 0.00 in0.0 mm 0.00 in0.0 mm
05:50 PM 71.8°F22.1°C 61.1°F16.2°C 69% 5.8 mph WSW9.3 kmh WSW 6.9 mph11.1 kmh 29.82 in1009.8 mb - 0.00 in0.0 mm 0.00 in0.0 mm
05:40 PM 72.1°F22.3°C 61.4°F16.3°C 69% 6.9 mph WSW11.1 kmh WSW 9.2 mph14.8 kmh 29.82 in1009.8 mb - 0.00 in0.0 mm 0.00 in0.0 mm
05:30 PM 72.5°F22.5°C 61.7°F16.5°C 69% 4.6 mph SW7.4 kmh SW 6.9 mph11.1 kmh 29.82 in1009.8 mb - 0.00 in0.0 mm 0.00 in0.0 mm
05:20 PM 72.9°F22.7°C 61.7°F16.5°C 68% 4.6 mph SW7.4 kmh SW 4.6 mph7.4 kmh 29.82 in1009.8 mb - 0.00 in0.0 mm 0.00 in0.0 mm
05:10 PM 73.5°F23.1°C 61.8°F16.6°C 67% 5.8 mph WSW9.3 kmh WSW 8.1 mph13.0 kmh 29.82 in1009.8 mb - 0.00 in0.0 mm 0.00 in0.0 mm
05:00 PM 73.2°F22.9°C 62.0°F16.7°C 68% 5.8 mph SW9.3 kmh SW 9.2 mph14.8 kmh 29.82 in1009.8 mb - 0.00 in0.0 mm 0.00 in0.0 mm
04:50 PM 72.7°F22.6°C 61.9°F16.6°C 69% 4.6 mph WSW7.4 kmh WSW 9.2 mph14.8 kmh 29.82 in1009.8 mb - 0.00 in0.0 mm 0.00 in0.0 mm
04:40 PM 74.4°F23.6°C 62.7°F17.1°C 67% 5.8 mph SW9.3 kmh SW 8.1 mph13.0 kmh 29.82 in1009.8 mb - 0.00 in0.0 mm 0.00 in0.0 mm
04:30 PM 75.7°F24.3°C 63.1°F17.3°C 65% 4.6 mph SW7.4 kmh SW 5.8 mph9.3 kmh 29.82 in1009.8 mb - 0.00 in0.0 mm 0.00 in0.0 mm
04:20 PM 77.8°F25.4°C 63.7°F17.6°C 62% 4.6 mph S7.4 kmh S 6.9 mph11.1 kmh 29.82 in1009.8 mb - 0.00 in0.0 mm 0.00 in0.0 mm
04:10 PM 78.6°F25.9°C 64.9°F18.3°C 63% 4.6 mph SSW7.4 kmh SSW 6.9 mph11.1 kmh 29.82 in1009.8 mb - 0.00 in0.0 mm 0.00 in0.0 mm
04:00 PM 76.8°F24.9°C 64.6°F18.1°C 66% 4.6 mph S7.4 kmh S 6.9 mph11.1 kmh 29.86 in1011.2 mb - 0.00 in0.0 mm 0.00 in0.0 mm
03:50 PM 75.6°F24.2°C 63.4°F17.4°C 66% 4.6 mph S7.4 kmh S 5.8 mph9.3 kmh 29.86 in1011.2 mb - 0.00 in0.0 mm 0.00 in0.0 mm
03:40 PM 75.7°F24.3°C 64.0°F17.8°C 67% 4.6 mph S7.4 kmh S 6.9 mph11.1 kmh 29.86 in1011.2 mb - 0.00 in0.0 mm 0.00 in0.0 mm
03:30 PM 76.6°F24.8°C 64.0°F17.8°C 65% 4.6 mph SSE7.4 kmh SSE 8.1 mph13.0 kmh 29.86 in1011.2 mb - 0.00 in0.0 mm 0.00 in0.0 mm
03:20 PM 76.5°F24.7°C 64.3°F17.9°C 66% 3.5 mph S5.6 kmh S 5.8 mph9.3 kmh 29.86 in1011.2 mb - 0.00 in0.0 mm 0.00 in0.0 mm
03:10 PM 78.1°F25.6°C 65.4°F18.6°C 65% 3.5 mph SW5.6 kmh SW 5.8 mph9.3 kmh 29.86 in1011.2 mb - 0.00 in0.0 mm 0.00 in0.0 mm
03:00 PM 78.2°F25.7°C 66.3°F19.1°C 67% 3.5 mph SE5.6 kmh SE 4.6 mph7.4 kmh 29.86 in1011.2 mb - 0.00 in0.0 mm 0.00 in0.0 mm
02:50 PM 77.5°F25.3°C 65.7°F18.7°C 67% 3.5 mph SE5.6 kmh SE 4.6 mph7.4 kmh 29.86 in1011.2 mb - 0.00 in0.0 mm 0.00 in0.0 mm
02:40 PM 78.4°F25.8°C 66.1°F18.9°C 66% 2.3 mph SSE3.7 kmh SSE 3.5 mph5.6 kmh 29.86 in1011.2 mb - 0.00 in0.0 mm 0.00 in0.0 mm
02:30 PM 80.0°F26.7°C 67.2°F19.6°C 65% 3.5 mph ESE5.6 kmh ESE 4.6 mph7.4 kmh 29.82 in1009.8 mb - 0.00 in0.0 mm 0.00 in0.0 mm
02:20 PM 80.9°F27.2°C 68.0°F20.0°C 65% 3.5 mph SE5.6 kmh SE 5.8 mph9.3 kmh 29.82 in1009.8 mb - 0.00 in0.0 mm 0.00 in0.0 mm
02:10 PM 80.3°F26.8°C 68.7°F20.4°C 68% 4.6 mph SE7.4 kmh SE 5.8 mph9.3 kmh 29.86 in1011.2 mb - 0.00 in0.0 mm 0.00 in0.0 mm
02:00 PM 78.1°F25.6°C 66.7°F19.3°C 68% 3.5 mph SE5.6 kmh SE 5.8 mph9.3 kmh 29.86 in1011.2 mb - 0.00 in0.0 mm 0.00 in0.0 mm
01:50 PM 79.3°F26.3°C 66.9°F19.4°C 66% 4.6 mph SE7.4 kmh SE 5.8 mph9.3 kmh 29.86 in1011.2 mb - 0.00 in0.0 mm 0.00 in0.0 mm
01:40 PM 78.6°F25.9°C 67.6°F19.8°C 69% 3.5 mph SE5.6 kmh SE 5.8 mph9.3 kmh 29.86 in1011.2 mb - 0.00 in0.0 mm 0.00 in0.0 mm
01:30 PM 78.1°F25.6°C 67.1°F19.5°C 69% 3.5 mph SSE5.6 kmh SSE 4.6 mph7.4 kmh 29.86 in1011.2 mb - 0.00 in0.0 mm 0.00 in0.0 mm
01:20 PM 74.4°F23.6°C 65.2°F18.4°C 73% 3.5 mph E5.6 kmh E 4.6 mph7.4 kmh 29.86 in1011.2 mb - 0.00 in0.0 mm 0.00 in0.0 mm
01:10 PM 75.4°F24.1°C 64.9°F18.3°C 70% 3.5 mph SSE5.6 kmh SSE 5.8 mph9.3 kmh 29.86 in1011.2 mb - 0.00 in0.0 mm 0.00 in0.0 mm
01:00 PM 76.5°F24.7°C 66.4°F19.1°C 71% 4.6 mph SE7.4 kmh SE 6.9 mph11.1 kmh 29.88 in1011.9 mb - 0.00 in0.0 mm 0.00 in0.0 mm
12:50 PM 76.0°F24.4°C 67.1°F19.5°C 74% 3.5 mph SSE5.6 kmh SSE 5.8 mph9.3 kmh 29.88 in1011.9 mb - 0.00 in0.0 mm 0.00 in0.0 mm
12:40 PM 73.6°F23.1°C 65.2°F18.4°C 75% 2.3 mph SE3.7 kmh SE 4.6 mph7.4 kmh 29.88 in1011.9 mb - 0.00 in0.0 mm 0.00 in0.0 mm
12:30 PM 72.0°F22.2°C 64.0°F17.8°C 76% 4.6 mph SE7.4 kmh SE 6.9 mph11.1 kmh 29.88 in1011.9 mb - 0.00 in0.0 mm 0.00 in0.0 mm
12:20 PM 72.3°F22.4°C 63.9°F17.7°C 75% 4.6 mph SSE7.4 kmh SSE 5.8 mph9.3 kmh 29.88 in1011.9 mb - 0.00 in0.0 mm 0.00 in0.0 mm
12:10 PM 72.7°F22.6°C 63.1°F17.3°C 72% 3.5 mph SSE5.6 kmh SSE 4.6 mph7.4 kmh 29.88 in1011.9 mb - 0.00 in0.0 mm 0.00 in0.0 mm
12:00 PM 74.8°F23.8°C 65.2°F18.4°C 72% 3.5 mph SSE5.6 kmh SSE 4.6 mph7.4 kmh 29.91 in1012.9 mb - 0.00 in0.0 mm 0.00 in0.0 mm
11:50 AM 75.0°F23.9°C 65.7°F18.7°C 73% 3.5 mph S5.6 kmh S 4.6 mph7.4 kmh 29.91 in1012.9 mb - 0.00 in0.0 mm 0.00 in0.0 mm
11:40 AM 76.2°F24.6°C 66.9°F19.4°C 73% 2.3 mph SSE3.7 kmh SSE 4.6 mph7.4 kmh 29.88 in1011.9 mb - 0.00 in0.0 mm 0.00 in0.0 mm
11:30 AM 75.4°F24.1°C 66.9°F19.4°C 75% 3.5 mph S5.6 kmh S 3.5 mph5.6 kmh 29.88 in1011.9 mb - 0.00 in0.0 mm 0.00 in0.0 mm
11:20 AM 73.7°F23.2°C 66.1°F18.9°C 77% 2.3 mph SSE3.7 kmh SSE 3.5 mph5.6 kmh 29.88 in1011.9 mb - 0.00 in0.0 mm 0.00 in0.0 mm
11:10 AM 73.3°F22.9°C 66.4°F19.1°C 79% 2.3 mph S3.7 kmh S 3.5 mph5.6 kmh 29.88 in1011.9 mb - 0.00 in0.0 mm 0.00 in0.0 mm
11:00 AM 71.7°F22.1°C 65.2°F18.4°C 80% 2.3 mph SSE3.7 kmh SSE 3.5 mph5.6 kmh 29.88 in1011.9 mb - 0.00 in0.0 mm 0.00 in0.0 mm
10:50 AM 71.1°F21.7°C 64.7°F18.2°C 80% 2.3 mph S3.7 kmh S 3.5 mph5.6 kmh 29.88 in1011.9 mb - 0.00 in0.0 mm 0.00 in0.0 mm
10:40 AM 70.7°F21.5°C 64.6°F18.1°C 81% 2.3 mph S3.7 kmh S 3.5 mph5.6 kmh 29.88 in1011.9 mb - 0.00 in0.0 mm 0.00 in0.0 mm
10:30 AM 70.5°F21.4°C 64.4°F18.0°C 81% 3.5 mph S5.6 kmh S 5.8 mph9.3 kmh 29.91 in1012.9 mb - 0.00 in0.0 mm 0.00 in0.0 mm
10:20 AM 69.7°F20.9°C 64.3°F17.9°C 83% 3.5 mph SSE5.6 kmh SSE 4.6 mph7.4 kmh 29.91 in1012.9 mb - 0.00 in0.0 mm 0.00 in0.0 mm
10:10 AM 69.4°F20.8°C 64.4°F18.0°C 84% 3.5 mph S5.6 kmh S 4.6 mph7.4 kmh 29.91 in1012.9 mb - 0.00 in0.0 mm 0.00 in0.0 mm
10:00 AM 68.9°F20.5°C 64.9°F18.3°C 87% 2.3 mph SSE3.7 kmh SSE 4.6 mph7.4 kmh 29.91 in1012.9 mb - 0.00 in0.0 mm 0.00 in0.0 mm
09:50 AM 66.8°F19.3°C 63.2°F17.3°C 88% 1.2 mph SSE1.9 kmh SSE 2.3 mph3.7 kmh 29.91 in1012.9 mb - 0.00 in0.0 mm 0.00 in0.0 mm
09:40 AM 66.2°F19.0°C 62.5°F16.9°C 88% 1.2 mph SSE1.9 kmh SSE 2.3 mph3.7 kmh 29.91 in1012.9 mb - 0.00 in0.0 mm 0.00 in0.0 mm
09:30 AM 66.6°F19.2°C 63.5°F17.5°C 90% 2.3 mph SE3.7 kmh SE 3.5 mph5.6 kmh 29.91 in1012.9 mb - 0.00 in0.0 mm 0.00 in0.0 mm
09:20 AM 66.2°F19.0°C 63.5°F17.5°C 91% 3.5 mph E5.6 kmh E 4.6 mph7.4 kmh 29.91 in1012.9 mb - 0.00 in0.0 mm 0.00 in0.0 mm
09:10 AM 64.8°F18.2°C 62.4°F16.9°C 92% 3.5 mph E5.6 kmh E 3.5 mph5.6 kmh 29.91 in1012.9 mb - 0.00 in0.0 mm 0.00 in0.0 mm
09:00 AM 63.9°F17.7°C 61.8°F16.6°C 93% 3.5 mph SE5.6 kmh SE 4.6 mph7.4 kmh 29.91 in1012.9 mb - 0.00 in0.0 mm 0.00 in0.0 mm
08:50 AM 62.6°F17.0°C 60.8°F16.0°C 94% 3.5 mph E5.6 kmh E 4.6 mph7.4 kmh 29.91 in1012.9 mb - 0.00 in0.0 mm 0.00 in0.0 mm
08:40 AM 61.7°F16.5°C 60.0°F15.6°C 94% 3.5 mph ESE5.6 kmh ESE 4.6 mph7.4 kmh 29.91 in1012.9 mb - 0.00 in0.0 mm 0.00 in0.0 mm
08:30 AM 61.5°F16.4°C 59.8°F15.4°C 94% 3.5 mph NE5.6 kmh NE 4.6 mph7.4 kmh 29.91 in1012.9 mb - 0.00 in0.0 mm 0.00 in0.0 mm
08:20 AM 61.7°F16.5°C 60.0°F15.6°C 94% 3.5 mph ESE5.6 kmh ESE 4.6 mph7.4 kmh 29.91 in1012.9 mb - 0.00 in0.0 mm 0.00 in0.0 mm
08:10 AM 61.7°F16.5°C 60.0°F15.6°C 94% 3.5 mph ESE5.6 kmh ESE 4.6 mph7.4 kmh 29.91 in1012.9 mb - 0.00 in0.0 mm 0.00 in0.0 mm
08:00 AM 61.9°F16.6°C 60.1°F15.6°C 94% 3.5 mph ENE5.6 kmh ENE 4.6 mph7.4 kmh 29.91 in1012.9 mb - 0.00 in0.0 mm 0.00 in0.0 mm
07:50 AM 62.4°F16.9°C 61.0°F16.1°C 95% 5.8 mph E9.3 kmh E 6.9 mph11.1 kmh 29.91 in1012.9 mb - 0.00 in0.0 mm 0.00 in0.0 mm
07:40 AM 62.8°F17.1°C 61.3°F16.3°C 95% 4.6 mph E7.4 kmh E 5.8 mph9.3 kmh 29.91 in1012.9 mb - 0.00 in0.0 mm 0.00 in0.0 mm
07:30 AM 62.4°F16.9°C 61.3°F16.3°C 96% 4.6 mph ESE7.4 kmh ESE 4.6 mph7.4 kmh 29.88 in1011.9 mb - 0.00 in0.0 mm 0.00 in0.0 mm
07:20 AM 62.1°F16.7°C 61.2°F16.2°C 97% 4.6 mph E7.4 kmh E 4.6 mph7.4 kmh 29.88 in1011.9 mb - 0.00 in0.0 mm 0.00 in0.0 mm
07:10 AM 61.3°F16.3°C 60.5°F15.8°C 97% 5.8 mph E9.3 kmh E 6.9 mph11.1 kmh 29.88 in1011.9 mb - 0.00 in0.0 mm 0.00 in0.0 mm
07:00 AM 60.6°F15.9°C 60.1°F15.6°C 98% 4.6 mph ENE7.4 kmh ENE 5.8 mph9.3 kmh 29.91 in1012.9 mb - 0.00 in0.0 mm 0.00 in0.0 mm
06:50 AM 60.4°F15.8°C 59.9°F15.5°C 98% 4.6 mph ENE7.4 kmh ENE 5.8 mph9.3 kmh 29.91 in1012.9 mb - 0.00 in0.0 mm 0.00 in0.0 mm
06:40 AM 59.8°F15.4°C 59.2°F15.1°C 98% 3.5 mph ENE5.6 kmh ENE 3.5 mph5.6 kmh 29.91 in1012.9 mb - 0.00 in0.0 mm 0.00 in0.0 mm
06:30 AM 59.7°F15.4°C 59.1°F15.1°C 98% 3.5 mph NE5.6 kmh NE 4.6 mph7.4 kmh 29.91 in1012.9 mb - 0.00 in0.0 mm 0.00 in0.0 mm
06:20 AM 59.7°F15.4°C 59.2°F15.1°C 98% 3.5 mph NE5.6 kmh NE 4.6 mph7.4 kmh 29.91 in1012.9 mb - 0.00 in0.0 mm 0.00 in0.0 mm
06:10 AM 59.9°F15.5°C 59.3°F15.2°C 98% 3.5 mph NE5.6 kmh NE 4.6 mph7.4 kmh 29.91 in1012.9 mb - 0.00 in0.0 mm 0.00 in0.0 mm
06:00 AM 59.7°F15.4°C 59.2°F15.1°C 98% 3.5 mph E5.6 kmh E 4.6 mph7.4 kmh 29.91 in1012.9 mb - 0.00 in0.0 mm 0.00 in0.0 mm
05:50 AM 59.5°F15.3°C 58.9°F14.9°C 98% 4.6 mph E7.4 kmh E 4.6 mph7.4 kmh 29.91 in1012.9 mb - 0.00 in0.0 mm 0.00 in0.0 mm
05:40 AM 59.4°F15.2°C 58.8°F14.9°C 98% 4.6 mph E7.4 kmh E 4.6 mph7.4 kmh 29.91 in1012.9 mb - 0.00 in0.0 mm 0.00 in0.0 mm
05:30 AM 59.2°F15.1°C 58.6°F14.8°C 98% 5.8 mph ENE9.3 kmh ENE 6.9 mph11.1 kmh 29.91 in1012.9 mb - 0.00 in0.0 mm 0.00 in0.0 mm
05:20 AM 59.2°F15.1°C 58.6°F14.8°C 98% 5.8 mph ENE9.3 kmh ENE 6.9 mph11.1 kmh 29.91 in1012.9 mb - 0.00 in0.0 mm 0.00 in0.0 mm
05:10 AM 59.4°F15.2°C 58.8°F14.9°C 98% 5.8 mph ENE9.3 kmh ENE 8.1 mph13.0 kmh 29.91 in1012.9 mb - 0.00 in0.0 mm 0.00 in0.0 mm
05:00 AM 59.4°F15.2°C 58.8°F14.9°C 98% 5.8 mph ENE9.3 kmh ENE 6.9 mph11.1 kmh 29.88 in1011.9 mb - 0.00 in0.0 mm 0.00 in0.0 mm
04:50 AM 59.7°F15.4°C 59.2°F15.1°C 98% 6.9 mph E11.1 kmh E 6.9 mph11.1 kmh 29.88 in1011.9 mb - 0.00 in0.0 mm 0.00 in0.0 mm
04:40 AM 60.1°F15.6°C 59.5°F15.3°C 98% 4.6 mph E7.4 kmh E 5.8 mph9.3 kmh 29.88 in1011.9 mb - 0.00 in0.0 mm 0.00 in0.0 mm
04:30 AM 60.4°F15.8°C 59.9°F15.5°C 98% 3.5 mph ENE5.6 kmh ENE 5.8 mph9.3 kmh 29.88 in1011.9 mb - 0.00 in0.0 mm 0.00 in0.0 mm
04:20 AM 60.6°F15.9°C 59.8°F15.4°C 97% Calm Calm -- 29.88 in1011.9 mb - 0.00 in0.0 mm 0.00 in0.0 mm
04:10 AM 60.6°F15.9°C 59.8°F15.4°C 97% Calm Calm -- 29.88 in1011.9 mb - 0.00 in0.0 mm 0.00 in0.0 mm
04:00 AM 60.5°F15.8°C 59.6°F15.3°C 97% Calm Calm -- 29.88 in1011.9 mb - 0.00 in0.0 mm 0.00 in0.0 mm
03:50 AM 60.4°F15.8°C 59.6°F15.3°C 97% Calm Calm -- 29.88 in1011.9 mb - 0.00 in0.0 mm 0.00 in0.0 mm
03:40 AM 60.4°F15.8°C 59.6°F15.3°C 97% Calm Calm -- 29.88 in1011.9 mb - 0.00 in0.0 mm 0.00 in0.0 mm
03:30 AM 60.3°F15.7°C 59.4°F15.2°C 97% Calm Calm -- 29.88 in1011.9 mb - 0.00 in0.0 mm 0.00 in0.0 mm
03:20 AM 60.1°F15.6°C 59.2°F15.1°C 97% Calm Calm -- 29.88 in1011.9 mb - 0.00 in0.0 mm 0.00 in0.0 mm
03:10 AM 59.9°F15.5°C 59.0°F15.0°C 97% Calm Calm -- 29.88 in1011.9 mb - 0.00 in0.0 mm 0.00 in0.0 mm
03:00 AM 59.7°F15.4°C 58.9°F14.9°C 97% Calm Calm -- 29.88 in1011.9 mb - 0.00 in0.0 mm 0.00 in0.0 mm
02:50 AM 59.7°F15.4°C 58.9°F14.9°C 97% Calm Calm -- 29.88 in1011.9 mb - 0.00 in0.0 mm 0.00 in0.0 mm
02:40 AM 59.5°F15.3°C 58.7°F14.8°C 97% Calm Calm -- 29.88 in1011.9 mb - 0.00 in0.0 mm 0.00 in0.0 mm
02:30 AM 59.4°F15.2°C 58.2°F14.6°C 96% Calm Calm -- 29.86 in1011.2 mb - 0.00 in0.0 mm 0.00 in0.0 mm
02:20 AM 59.2°F15.1°C 58.0°F14.4°C 96% Calm Calm -- 29.86 in1011.2 mb - 0.00 in0.0 mm 0.00 in0.0 mm
02:10 AM 58.8°F14.9°C 58.0°F14.4°C 97% Calm Calm -- 29.86 in1011.2 mb - 0.00 in0.0 mm 0.00 in0.0 mm
02:00 AM 58.8°F14.9°C 57.7°F14.3°C 96% Calm Calm -- 29.88 in1011.9 mb - 0.00 in0.0 mm 0.00 in0.0 mm
01:50 AM 59.3°F15.2°C 58.2°F14.6°C 96% 2.3 mph SE3.7 kmh SE 2.3 mph3.7 kmh 29.88 in1011.9 mb - 0.00 in0.0 mm 0.00 in0.0 mm
01:40 AM 59.9°F15.5°C 58.8°F14.9°C 96% 2.3 mph SE3.7 kmh SE 2.3 mph3.7 kmh 29.88 in1011.9 mb - 0.00 in0.0 mm 0.00 in0.0 mm
01:30 AM 60.3°F15.7°C 59.1°F15.1°C 96% Calm Calm 2.3 mph3.7 kmh 29.88 in1011.9 mb - 0.00 in0.0 mm 0.00 in0.0 mm
01:20 AM 60.6°F15.9°C 59.5°F15.3°C 96% 1.2 mph 1.9 kmh 2.3 mph3.7 kmh 29.88 in1011.9 mb - 0.00 in0.0 mm 0.00 in0.0 mm
01:10 AM 60.7°F15.9°C 59.5°F15.3°C 96% Calm Calm -- 29.86 in1011.2 mb - 0.00 in0.0 mm 0.00 in0.0 mm
01:00 AM 60.8°F16.0°C 59.4°F15.2°C 95% Calm Calm -- 29.86 in1011.2 mb - 0.00 in0.0 mm 0.00 in0.0 mm
12:50 AM 61.0°F16.1°C 59.5°F15.3°C 95% Calm Calm -- 29.86 in1011.2 mb - 0.00 in0.0 mm 0.00 in0.0 mm
12:40 AM 61.2°F16.2°C 59.7°F15.4°C 95% Calm Calm -- 29.88 in1011.9 mb - 0.00 in0.0 mm 0.00 in0.0 mm
12:30 AM 61.3°F16.3°C 59.9°F15.5°C 95% 1.2 mph WNW1.9 kmh WNW 2.3 mph3.7 kmh 29.86 in1011.2 mb - 0.00 in0.0 mm 0.00 in0.0 mm
12:20 AM 61.3°F16.3°C 59.9°F15.5°C 95% Calm Calm 1.2 mph1.9 kmh 29.86 in1011.2 mb - 0.00 in0.0 mm 0.00 in0.0 mm
12:10 AM 61.3°F16.3°C 59.9°F15.5°C 95% 1.2 mph 1.9 kmh 2.3 mph3.7 kmh 29.88 in1011.9 mb - 0.00 in0.0 mm 0.00 in0.0 mm
12:00 AM 61.2°F16.2°C 59.7°F15.4°C 95% 1.2 mph NNW1.9 kmh NNW 2.3 mph3.7 kmh 29.86 in1011.2 mb - 0.00 in0.0 mm 0.00 in0.0 mm